Time;durP1;ratioP1;P1;durP2;ratioP2;P2;SDS_P1;SDS_P2;PMS_P1;PMS_P2;Temp;Humidity;BMP_temperature;BMP_pressure;BME280_temperature;BME280_humidity;BME280_pressure;Samples;Min_cycle;Max_cycle;Signal;HPM_P1;HPM_P2
2022/03/14 00:00:31;;;;;;;;;34.75;32.25;;;;;0.44;100.00;102872.69;3723325;38;21399;-55
2022/03/14 00:03:01;;;;;;;;;38.50;32.75;;;;;0.48;100.00;102876.97;3723131;37;21527;-55
2022/03/14 00:05:31;;;;;;;;;30.00;25.00;;;;;0.51;100.00;102880.38;3722964;37;21395;-54
2022/03/14 00:08:01;;;;;;;;;22.50;20.00;;;;;0.52;100.00;102875.94;3722898;37;21515;-53
2022/03/14 00:10:29;;;;;;;;;29.25;23.75;;;;;0.54;100.00;102877.56;3722735;37;21493;-51
2022/03/14 00:12:58;;;;;;;;;27.50;27.00;;;;;0.63;100.00;102881.66;3723005;37;21659;-55
2022/03/14 00:15:32;;;;;;;;;29.00;27.00;;;;;0.72;100.00;102881.28;3723014;38;21485;-52
2022/03/14 00:18:05;;;;;;;;;21.75;20.50;;;;;0.80;100.00;102889.84;3722846;38;21561;-52
2022/03/14 00:20:33;;;;;;;;;21.75;19.00;;;;;0.75;100.00;102886.50;3722758;38;21384;-56
2022/03/14 00:23:00;;;;;;;;;20.00;20.00;;;;;0.65;100.00;102883.34;3723045;37;21639;-52
2022/03/14 00:25:29;;;;;;;;;26.75;24.50;;;;;0.56;100.00;102883.69;3722965;37;21444;-51
2022/03/14 00:27:56;;;;;;;;;26.00;24.75;;;;;0.53;100.00;102873.16;3722971;37;21357;-51
2022/03/14 00:30:23;;;;;;;;;25.50;24.00;;;;;0.54;100.00;102882.03;3722923;38;21367;-50
2022/03/14 00:32:50;;;;;;;;;28.00;26.50;;;;;0.56;100.00;102889.03;3722169;37;21496;-50
2022/03/14 00:35:18;;;;;;;;;26.75;25.50;;;;;0.55;100.00;102881.97;3722911;38;21346;-48
2022/03/14 00:37:45;;;;;;;;;25.00;24.00;;;;;0.50;100.00;102891.09;3722948;38;21337;-48
2022/03/14 00:40:13;;;;;;;;;23.00;22.25;;;;;0.57;100.00;102892.56;3722000;38;21271;-48
2022/03/14 00:42:48;;;;;;;;;29.25;24.75;;;;;0.62;100.00;102879.91;3722884;38;21271;-47
2022/03/14 00:45:15;;;;;;;;;26.00;25.25;;;;;0.67;100.00;102888.59;3722269;38;21447;-49
2022/03/14 00:47:43;;;;;;;;;23.25;22.00;;;;;0.68;100.00;102890.34;3722157;38;21522;-50
2022/03/14 00:50:11;;;;;;;;;19.25;17.25;;;;;0.64;100.00;102900.25;3722122;37;21323;-51
2022/03/14 00:52:38;;;;;;;;;22.00;20.50;;;;;0.59;100.00;102899.56;3722924;38;21355;-52
2022/03/14 00:55:06;;;;;;;;;27.00;24.50;;;;;0.62;100.00;102901.25;3723041;37;21308;-51
2022/03/14 00:57:33;;;;;;;;;30.75;29.75;;;;;0.62;100.00;102899.44;3724199;38;21416;-52
2022/03/14 01:00:02;;;;;;;;;27.50;26.50;;;;;0.53;100.00;102902.47;3724186;38;21429;-52
2022/03/14 01:02:30;;;;;;;;;29.25;28.75;;;;;0.43;100.00;102910.94;3722939;37;21329;-52
2022/03/14 01:04:57;;;;;;;;;26.75;24.25;;;;;0.38;100.00;102911.09;3723042;37;21440;-50
2022/03/14 01:07:25;;;;;;;;;18.25;18.25;;;;;0.34;100.00;102906.81;3722858;38;21332;-50
2022/03/14 01:09:52;;;;;;;;;23.75;21.75;;;;;0.39;100.00;102903.97;3723008;38;21322;-52
2022/03/14 01:12:19;;;;;;;;;22.50;21.75;;;;;0.34;100.00;102898.84;3722909;38;21462;-50
2022/03/14 01:14:47;;;;;;;;;28.25;23.00;;;;;0.32;100.00;102911.34;3722993;38;21338;-52
2022/03/14 01:17:14;;;;;;;;;24.50;20.25;;;;;0.25;100.00;102908.06;3722140;37;21263;-50
2022/03/14 01:19:42;;;;;;;;;24.25;22.75;;;;;0.15;100.00;102912.00;3722054;38;21143;-51
2022/03/14 01:22:10;;;;;;;;;25.75;25.25;;;;;0.16;100.00;102905.75;3722819;38;21365;-50
2022/03/14 01:24:38;;;;;;;;;30.75;29.50;;;;;0.25;100.00;102918.72;3722967;37;21381;-49
2022/03/14 01:27:07;;;;;;;;;27.00;26.75;;;;;0.27;100.00;102910.66;3722950;38;21466;-50
2022/03/14 01:29:34;;;;;;;;;21.75;21.75;;;;;0.29;100.00;102917.66;3722920;38;21381;-51
2022/03/14 01:32:06;;;;;;;;;17.75;17.00;;;;;0.34;100.00;102914.81;3722066;37;21366;-48
2022/03/14 01:34:34;;;;;;;;;28.50;25.25;;;;;0.47;100.00;102917.87;3722954;37;21254;-50
2022/03/14 01:37:02;;;;;;;;;24.25;23.75;;;;;0.56;100.00;102914.81;3722750;37;21264;-49
2022/03/14 01:39:30;;;;;;;;;24.25;22.75;;;;;0.53;100.00;102915.78;3722843;37;21400;-48
2022/03/14 01:42:00;;;;;;;;;32.25;26.50;;;;;0.39;100.00;102930.63;3722990;37;21395;-47
2022/03/14 01:44:27;;;;;;;;;30.75;30.25;;;;;0.22;100.00;102932.13;3722952;37;21451;-50
2022/03/14 01:46:55;;;;;;;;;27.75;24.50;;;;;0.08;100.00;102936.25;3722898;38;21413;-49
2022/03/14 01:49:23;;;;;;;;;20.25;19.50;;;;;0.07;100.00;102929.19;3723015;38;20891;-50
2022/03/14 01:51:57;;;;;;;;;27.75;22.00;;;;;0.12;100.00;102941.41;3722887;37;21437;-51
2022/03/14 01:54:25;;;;;;;;;19.25;18.00;;;;;0.17;100.00;102933.25;3722832;38;21325;-50
2022/03/14 01:56:52;;;;;;;;;29.75;28.00;;;;;0.16;100.00;102934.16;3722904;37;21201;-51
2022/03/14 01:59:21;;;;;;;;;24.50;24.50;;;;;0.08;100.00;102942.44;3722840;38;21340;-51
2022/03/14 02:01:48;;;;;;;;;28.50;28.00;;;;;-0.05;100.00;102935.88;3722127;37;21485;-51
2022/03/14 02:04:17;;;;;;;;;30.25;27.50;;;;;-0.03;100.00;102949.97;3722205;38;21315;-52
2022/03/14 02:06:46;;;;;;;;;28.75;28.00;;;;;0.01;100.00;102946.25;3722142;38;21407;-49
2022/03/14 02:09:14;;;;;;;;;24.50;23.00;;;;;0.07;100.00;102948.69;3722930;37;21414;-50
2022/03/14 02:12:10;;;;;;;;;18.00;18.00;;;;;0.15;100.00;102948.41;3722935;38;21091;-51
2022/03/14 02:14:41;;;;;;;;;20.25;19.00;;;;;0.19;100.00;102948.22;3722469;38;21358;-53
2022/03/14 02:17:13;;;;;;;;;28.25;28.25;;;;;0.18;100.00;102949.16;3722923;37;21209;-49
2022/03/14 02:19:42;;;;;;;;;32.00;29.50;;;;;0.18;100.00;102951.81;3723051;37;21482;-51
2022/03/14 02:22:16;;;;;;;;;29.50;28.50;;;;;0.13;100.00;102956.44;3722870;37;21363;-50
2022/03/14 02:24:46;;;;;;;;;26.75;24.00;;;;;0.14;100.00;102955.53;3722879;37;21296;-51
2022/03/14 02:27:16;;;;;;;;;25.75;23.50;;;;;0.07;100.00;102962.00;3722312;38;21317;-51
2022/03/14 02:29:43;;;;;;;;;22.00;20.75;;;;;0.01;100.00;102962.22;3723086;37;21285;-50
2022/03/14 02:32:11;;;;;;;;;19.75;18.75;;;;;-0.06;100.00;102960.75;3723021;38;21355;-50
2022/03/14 02:34:40;;;;;;;;;23.50;22.25;;;;;-0.05;100.00;102965.16;3723046;38;21251;-52
2022/03/14 02:37:08;;;;;;;;;22.25;17.75;;;;;0.01;100.00;102956.91;3722898;37;21282;-51
2022/03/14 02:39:37;;;;;;;;;20.50;20.50;;;;;0.03;100.00;102965.69;3723081;37;21134;-49
2022/03/14 02:42:07;;;;;;;;;27.00;26.00;;;;;0.04;100.00;102967.44;3722860;37;21257;-53
2022/03/14 02:44:34;;;;;;;;;23.50;23.25;;;;;0.09;100.00;102964.59;3722116;37;21205;-53
2022/03/14 02:47:04;;;;;;;;;18.75;18.50;;;;;0.11;100.00;102960.09;3722989;37;21273;-50
2022/03/14 02:49:32;;;;;;;;;26.75;25.25;;;;;0.15;100.00;102962.59;3722654;37;21227;-49
2022/03/14 02:51:59;;;;;;;;;35.25;32.25;;;;;0.18;100.00;102965.13;3722031;37;21206;-52
2022/03/14 02:54:27;;;;;;;;;22.50;20.50;;;;;0.11;100.00;102970.75;3723029;37;21358;-50
2022/03/14 02:56:56;;;;;;;;;27.75;26.00;;;;;0.00;100.00;102973.84;3722636;37;21295;-49
2022/03/14 02:59:24;;;;;;;;;17.50;16.75;;;;;0.00;100.00;102987.16;3722903;37;21154;-49
2022/03/14 03:01:51;;;;;;;;;23.25;22.00;;;;;0.05;100.00;102981.63;3723007;38;21353;-48
2022/03/14 03:04:19;;;;;;;;;26.00;24.75;;;;;0.12;100.00;102976.00;3722703;37;21229;-48
2022/03/14 03:06:46;;;;;;;;;26.50;25.25;;;;;0.20;100.00;102973.94;3722688;37;21141;-49
2022/03/14 03:09:14;;;;;;;;;20.50;18.50;;;;;0.22;100.00;102963.22;3722885;37;21394;-49
2022/03/14 03:11:41;;;;;;;;;26.00;22.00;;;;;0.23;100.00;102964.97;3722820;38;21124;-50
2022/03/14 03:14:09;;;;;;;;;25.25;23.75;;;;;0.24;100.00;102974.69;3722922;37;21225;-48
2022/03/14 03:16:37;;;;;;;;;19.75;18.25;;;;;-0.06;100.00;102971.38;3722119;37;21123;-52
2022/03/14 03:19:06;;;;;;;;;29.50;27.50;;;;;-0.17;100.00;102982.44;3722930;38;21284;-50
2022/03/14 03:21:38;;;;;;;;;42.50;40.50;;;;;-0.16;100.00;102980.62;3722974;37;21307;-50
2022/03/14 03:24:07;;;;;;;;;25.00;24.00;;;;;-0.06;100.00;102976.72;3722841;37;21347;-49
2022/03/14 03:26:39;;;;;;;;;45.00;41.00;;;;;0.01;100.00;102972.87;3722791;37;21220;-50
2022/03/14 03:29:09;;;;;;;;;38.25;33.75;;;;;0.01;100.00;102970.22;3722807;37;21298;-49
2022/03/14 03:31:39;;;;;;;;;37.00;32.00;;;;;0.11;100.00;102984.94;3722700;37;21308;-49
2022/03/14 03:34:07;;;;;;;;;49.50;40.75;;;;;0.09;100.00;102984.12;3722729;38;21167;-48
2022/03/14 03:36:35;;;;;;;;;39.00;36.00;;;;;0.01;100.00;102980.88;3722726;37;21387;-49
2022/03/14 03:39:03;;;;;;;;;47.25;38.00;;;;;-0.08;100.00;102973.25;3722730;37;21485;-48
2022/03/14 03:41:31;;;;;;;;;79.75;59.50;;;;;-0.10;100.00;102988.41;3722919;38;21309;-48
2022/03/14 03:43:59;;;;;;;;;30.00;27.25;;;;;-0.13;100.00;102976.06;3722799;37;18169;-49
2022/03/14 03:46:27;;;;;;;;;27.75;25.75;;;;;-0.08;100.00;102990.09;3722889;37;21093;-48
2022/03/14 03:48:55;;;;;;;;;28.75;27.75;;;;;-0.08;100.00;102999.84;3721976;37;20830;-49
2022/03/14 03:51:22;;;;;;;;;32.25;30.00;;;;;-0.06;100.00;102992.69;3722834;37;21262;-51
2022/03/14 03:53:50;;;;;;;;;31.75;29.75;;;;;-0.05;100.00;102992.63;3722731;38;21357;-50
2022/03/14 03:56:17;;;;;;;;;29.00;27.75;;;;;0.04;100.00;102994.06;3722981;37;21242;-51
2022/03/14 03:58:45;;;;;;;;;26.25;26.00;;;;;0.08;100.00;103003.69;3722156;38;21290;-51
2022/03/14 04:01:12;;;;;;;;;46.00;40.75;;;;;0.01;100.00;103007.47;3722814;37;21155;-51
2022/03/14 04:03:39;;;;;;;;;68.50;53.00;;;;;0.00;100.00;103000.47;3722879;38;21167;-51
2022/03/14 04:06:07;;;;;;;;;73.25;55.25;;;;;-0.05;100.00;102999.75;3722139;38;21256;-52
2022/03/14 04:08:34;;;;;;;;;75.00;57.50;;;;;-0.06;100.00;103003.34;3722305;38;21030;-52
2022/03/14 04:11:06;;;;;;;;;51.25;40.75;;;;;-0.11;100.00;103006.16;3722392;37;20911;-55
2022/03/14 04:13:34;;;;;;;;;41.00;38.00;;;;;-0.28;100.00;103002.34;3722227;37;21161;-54
2022/03/14 04:16:01;;;;;;;;;55.25;45.00;;;;;-0.32;100.00;103012.22;3722902;37;21155;-56
2022/03/14 04:18:29;;;;;;;;;42.50;37.00;;;;;-0.36;100.00;103015.94;3722478;37;21138;-53
2022/03/14 04:20:57;;;;;;;;;37.50;33.50;;;;;-0.31;100.00;103021.94;3722181;37;21287;-53
2022/03/14 04:23:24;;;;;;;;;30.00;26.00;;;;;-0.27;100.00;103017.41;3722759;38;21250;-54
2022/03/14 04:25:56;;;;;;;;;47.75;40.50;;;;;-0.15;100.00;103016.97;3721970;37;20994;-54
2022/03/14 04:28:24;;;;;;;;;51.50;43.00;;;;;-0.07;100.00;103017.56;3723009;37;21224;-53
2022/03/14 04:30:51;;;;;;;;;34.75;32.50;;;;;-0.02;100.00;103011.16;3722328;37;21051;-52
2022/03/14 04:33:18;;;;;;;;;38.75;34.50;;;;;-0.08;100.00;103018.50;3722031;38;20910;-51
2022/03/14 04:35:46;;;;;;;;;38.75;34.50;;;;;-0.07;100.00;103025.56;3722923;37;21143;-49
2022/03/14 04:38:14;;;;;;;;;45.50;38.00;;;;;-0.02;100.00;103024.47;3722684;37;21219;-53
2022/03/14 04:40:41;;;;;;;;;37.75;33.25;;;;;0.03;100.00;103029.59;3722895;38;21141;-47
2022/03/14 04:43:10;;;;;;;;;32.25;30.50;;;;;-0.01;100.00;103033.31;3722970;38;21040;-48
2022/03/14 04:45:38;;;;;;;;;38.75;36.50;;;;;-0.18;100.00;103039.25;3721921;38;20985;-49
2022/03/14 04:48:06;;;;;;;;;33.50;31.00;;;;;-0.40;100.00;103030.25;3722877;37;21089;-50
2022/03/14 04:50:35;;;;;;;;;34.50;33.00;;;;;-0.29;100.00;103035.22;3722594;38;21048;-49
2022/03/14 04:53:06;;;;;;;;;32.00;29.00;;;;;-0.17;100.00;103029.47;3722163;37;21167;-49
2022/03/14 04:55:35;;;;;;;;;35.25;31.75;;;;;-0.04;100.00;103031.62;3722207;37;21111;-49
2022/03/14 04:58:03;;;;;;;;;38.50;37.00;;;;;-0.05;100.00;103032.56;3722830;38;21082;-48
2022/03/14 05:00:32;;;;;;;;;47.75;38.50;;;;;-0.02;100.00;103032.44;3722739;37;21195;-49
2022/03/14 05:03:07;;;;;;;;;46.50;38.00;;;;;-0.04;100.00;103033.44;3722951;37;21162;-49
2022/03/14 05:05:37;;;;;;;;;70.50;54.00;;;;;0.00;100.00;103038.56;3722791;37;21178;-49
2022/03/14 05:08:05;;;;;;;;;55.75;41.75;;;;;-0.03;100.00;103045.81;3722833;37;21199;-48
2022/03/14 05:10:34;;;;;;;;;39.00;36.50;;;;;-0.02;100.00;103037.78;3722799;38;21235;-52
2022/03/14 05:13:02;;;;;;;;;38.50;36.00;;;;;0.02;100.00;103043.81;3722850;38;21098;-50
2022/03/14 05:15:33;;;;;;;;;29.25;25.75;;;;;-0.02;100.00;103047.56;3721987;38;21022;-50
2022/03/14 05:18:02;;;;;;;;;32.75;30.00;;;;;-0.07;100.00;103047.72;3722869;37;21160;-51
2022/03/14 05:20:29;;;;;;;;;34.25;30.00;;;;;-0.01;100.00;103046.63;3722745;38;21110;-50
2022/03/14 05:22:57;;;;;;;;;37.25;33.75;;;;;0.01;100.00;103042.09;3722791;38;21062;-52
2022/03/14 05:25:24;;;;;;;;;33.25;31.00;;;;;0.08;100.00;103054.25;3722917;38;21051;-51
2022/03/14 05:27:55;;;;;;;;;19.00;16.50;;;;;0.08;100.00;103058.72;3722740;38;21259;-48
2022/03/14 05:30:24;;;;;;;;;36.75;34.00;;;;;0.16;100.00;103060.19;3722872;38;21031;-51
2022/03/14 05:32:52;;;;;;;;;33.50;32.00;;;;;0.15;100.00;103061.09;3722932;38;21112;-50
2022/03/14 05:35:20;;;;;;;;;40.00;35.25;;;;;0.23;100.00;103074.16;3722783;38;21064;-53
2022/03/14 05:37:47;;;;;;;;;40.75;34.25;;;;;0.37;100.00;103066.53;3723047;37;21032;-52
2022/03/14 05:40:18;;;;;;;;;38.75;35.00;;;;;0.39;100.00;103067.34;3722462;38;21041;-51
2022/03/14 05:42:49;;;;;;;;;35.25;31.25;;;;;0.43;100.00;103068.09;3722959;37;21230;-49
2022/03/14 05:45:18;;;;;;;;;28.50;27.50;;;;;0.52;100.00;103070.44;3722086;37;21089;-51
2022/03/14 05:47:46;;;;;;;;;24.00;22.25;;;;;0.53;100.00;103073.00;3722951;38;21110;-50
2022/03/14 05:50:13;;;;;;;;;29.00;29.00;;;;;0.63;100.00;103078.84;3722667;38;21054;-50
2022/03/14 05:52:41;;;;;;;;;27.25;26.00;;;;;0.68;100.00;103076.00;3722863;37;21122;-50
2022/03/14 05:55:09;;;;;;;;;25.50;24.00;;;;;0.86;100.00;103078.84;3722804;37;20925;-50
2022/03/14 05:57:37;;;;;;;;;26.50;25.50;;;;;0.91;100.00;103076.88;3722211;37;21063;-48
2022/03/14 06:00:06;;;;;;;;;28.50;26.25;;;;;0.96;100.00;103079.38;3722029;37;20959;-50
2022/03/14 06:02:46;;;;;;;;;32.00;30.75;;;;;1.04;100.00;103084.41;3722914;38;20995;-49
2022/03/14 06:05:14;;;;;;;;;30.25;29.25;;;;;0.96;100.00;103093.56;3722962;37;20998;-51
2022/03/14 06:07:42;;;;;;;;;28.50;27.25;;;;;0.93;100.00;103090.16;3722631;37;20892;-52
2022/03/14 06:10:10;;;;;;;;;37.25;33.25;;;;;0.95;100.00;103101.63;3722940;37;20962;-52
2022/03/14 06:12:37;;;;;;;;;46.25;41.75;;;;;0.87;100.00;103101.91;3723054;38;20987;-52
2022/03/14 06:15:09;;;;;;;;;29.25;28.75;;;;;0.83;100.00;103110.09;3723163;37;20983;-53
2022/03/14 06:17:37;;;;;;;;;25.75;25.00;;;;;0.84;100.00;103114.50;3723075;37;20960;-50
2022/03/14 06:20:05;;;;;;;;;24.50;21.25;;;;;0.96;100.00;103122.91;3722816;38;20867;-54
2022/03/14 06:22:38;;;;;;;;;32.50;31.00;;;;;0.95;100.00;103120.28;3722229;37;20971;-53
2022/03/14 06:25:07;;;;;;;;;39.25;35.50;;;;;0.97;100.00;103115.75;3722200;37;21074;-52
2022/03/14 06:27:34;;;;;;;;;36.75;34.25;;;;;1.06;100.00;103111.84;3722914;38;20968;-53
2022/03/14 06:30:03;;;;;;;;;39.00;38.00;;;;;1.18;100.00;103112.25;3723513;37;21015;-53
2022/03/14 06:32:38;;;;;;;;;35.50;33.25;;;;;1.24;100.00;103117.34;3723338;37;21048;-56
2022/03/14 06:35:09;;;;;;;;;43.50;32.75;;;;;1.28;100.00;103112.75;3723301;37;21082;-54
2022/03/14 06:37:37;;;;;;;;;44.50;35.25;;;;;1.29;100.00;103119.81;3722113;38;20949;-50
2022/03/14 06:40:06;;;;;;;;;38.00;34.50;;;;;1.19;100.00;103118.44;3721666;37;20957;-50
2022/03/14 06:42:38;;;;;;;;;38.00;31.75;;;;;1.20;100.00;103115.72;3722096;37;21021;-51
2022/03/14 06:45:06;;;;;;;;;45.25;30.75;;;;;1.27;100.00;103125.22;3722793;38;20950;-56
2022/03/14 06:47:34;;;;;;;;;36.25;33.75;;;;;1.44;100.00;103119.22;3722259;38;21035;-53
2022/03/14 06:50:02;;;;;;;;;44.50;36.75;;;;;1.44;100.00;103124.53;3722557;37;20941;-53
2022/03/14 06:52:29;;;;;;;;;39.00;34.00;;;;;1.44;100.00;103132.56;3722750;37;20946;-57
2022/03/14 06:54:56;;;;;;;;;33.00;30.75;;;;;1.33;100.00;103127.63;3722877;38;21026;-51
2022/03/14 06:57:24;;;;;;;;;37.50;33.00;;;;;1.22;100.00;103135.19;3722727;38;20942;-53
2022/03/14 06:59:52;;;;;;;;;35.75;33.50;;;;;1.24;100.00;103146.69;3722760;37;20946;-53
2022/03/14 07:02:19;;;;;;;;;28.75;27.25;;;;;1.34;100.00;103141.84;3722787;37;20982;-54
2022/03/14 07:04:46;;;;;;;;;39.75;33.50;;;;;1.44;100.00;103148.56;3722981;38;20948;-52
2022/03/14 07:07:14;;;;;;;;;45.50;36.50;;;;;1.38;100.00;103142.59;3722338;38;21016;-51
2022/03/14 07:09:41;;;;;;;;;30.00;29.75;;;;;1.47;100.00;103150.25;3722047;37;21019;-53
2022/03/14 07:12:13;;;;;;;;;42.25;34.75;;;;;1.50;100.00;103144.78;3721978;38;21020;-50
2022/03/14 07:14:41;;;;;;;;;33.75;29.25;;;;;1.60;100.00;103144.31;3722967;38;20722;-52
2022/03/14 07:17:08;;;;;;;;;34.25;31.25;;;;;1.69;100.00;103144.87;3722857;37;20860;-52
2022/03/14 07:19:35;;;;;;;;;45.75;37.25;;;;;1.73;100.00;103144.69;3722185;38;20901;-54
2022/03/14 07:22:03;;;;;;;;;35.50;31.00;;;;;1.85;100.00;103148.66;3722030;38;21027;-55
2022/03/14 07:24:34;;;;;;;;;34.25;30.75;;;;;1.80;100.00;103140.84;3723083;38;21015;-53
2022/03/14 07:27:01;;;;;;;;;35.00;32.00;;;;;1.88;100.00;103145.84;3723301;38;21007;-57
2022/03/14 07:29:29;;;;;;;;;39.50;31.75;;;;;1.91;100.00;103140.38;3722461;37;20808;-57
2022/03/14 07:31:56;;;;;;;;;39.25;34.25;;;;;1.97;100.00;103145.47;3722429;38;20968;-55
2022/03/14 07:34:24;;;;;;;;;40.50;37.00;;;;;2.09;100.00;103144.94;3723271;37;20894;-54
2022/03/14 07:36:52;;;;;;;;;41.25;37.50;;;;;2.17;100.00;103141.94;3722973;38;20904;-55
2022/03/14 07:39:19;;;;;;;;;42.50;39.50;;;;;2.16;100.00;103138.37;3723028;37;21096;-53
2022/03/14 07:41:47;;;;;;;;;38.75;33.00;;;;;2.27;100.00;103145.94;3723093;37;20837;-55
2022/03/14 07:44:14;;;;;;;;;29.25;28.75;;;;;2.26;100.00;103139.72;3723018;38;20778;-56
2022/03/14 07:46:41;;;;;;;;;49.25;43.50;;;;;2.32;100.00;103149.28;3722219;38;20855;-54
2022/03/14 07:49:09;;;;;;;;;57.75;44.25;;;;;2.47;100.00;103150.41;3722835;37;20945;-54
2022/03/14 07:51:37;;;;;;;;;49.25;43.25;;;;;2.60;100.00;103152.44;3721952;38;20964;-55
2022/03/14 07:54:04;;;;;;;;;47.50;41.50;;;;;2.55;100.00;103151.81;3723006;37;20924;-54
2022/03/14 07:56:31;;;;;;;;;48.00;41.50;;;;;2.63;100.00;103152.31;3723005;38;20841;-54
2022/03/14 07:58:59;;;;;;;;;47.75;41.25;;;;;2.80;100.00;103153.38;3723078;38;21036;-55
2022/03/14 08:01:26;;;;;;;;;50.25;42.25;;;;;2.81;100.00;103147.94;3722103;38;20865;-55
2022/03/14 08:03:54;;;;;;;;;55.75;44.25;;;;;2.76;100.00;103149.09;3723243;37;20903;-56
2022/03/14 08:06:23;;;;;;;;;53.75;45.25;;;;;2.86;100.00;103153.09;3722320;38;20945;-60
2022/03/14 08:08:53;;;;;;;;;55.75;44.25;;;;;2.94;100.00;103157.16;3722341;38;20832;-57
2022/03/14 08:11:22;;;;;;;;;55.00;44.50;;;;;3.03;100.00;103152.31;3722334;37;20846;-57
2022/03/14 08:13:50;;;;;;;;;55.50;44.00;;;;;3.14;100.00;103156.19;3724114;37;20955;-55
2022/03/14 08:16:17;;;;;;;;;56.50;47.75;;;;;3.37;100.00;103148.91;3723760;37;20885;-54
2022/03/14 08:18:45;;;;;;;;;55.75;46.00;;;;;3.59;100.00;103155.81;3723430;37;21012;-55
2022/03/14 08:21:13;;;;;;;;;50.25;42.00;;;;;3.60;100.00;103146.84;3723254;37;20910;-54
2022/03/14 08:23:41;;;;;;;;;52.00;42.25;;;;;3.50;100.00;103147.38;3723089;38;20797;-55
2022/03/14 08:26:09;;;;;;;;;45.50;40.25;;;;;3.51;100.00;103143.75;3722441;37;20826;-57
2022/03/14 08:28:36;;;;;;;;;52.00;43.75;;;;;3.46;100.00;103151.13;3722479;38;20820;-54
2022/03/14 08:31:04;;;;;;;;;53.50;43.25;;;;;3.32;100.00;103144.63;3723435;37;20826;-54
2022/03/14 08:33:32;;;;;;;;;43.50;37.00;;;;;3.33;98.34;103137.47;3722975;37;20904;-56
2022/03/14 08:36:01;;;;;;;;;28.25;25.00;;;;;3.11;95.98;103145.66;3722740;37;20908;-55
2022/03/14 08:38:29;;;;;;;;;23.75;21.75;;;;;3.26;91.05;103142.25;3722922;38;20697;-56
2022/03/14 08:40:56;;;;;;;;;1.00;1.00;;;;;3.53;88.20;103140.06;3722653;38;20753;-55
2022/03/14 08:43:24;;;;;;;;;17.50;13.75;;;;;3.80;81.63;103142.28;3722910;37;20583;-56
2022/03/14 08:45:53;;;;;;;;;17.50;16.75;;;;;3.92;79.83;103130.97;3722973;38;20762;-58
2022/03/14 08:48:23;;;;;;;;;16.50;16.50;;;;;3.85;77.81;103141.13;3721964;37;20775;-56
2022/03/14 08:50:51;;;;;;;;;18.25;17.50;;;;;3.85;78.80;103137.56;3722773;38;20481;-55
2022/03/14 08:53:18;;;;;;;;;24.75;22.75;;;;;4.01;78.84;103134.97;3722928;38;20688;-56
2022/03/14 08:56:04;;;;;;;;;19.00;18.25;;;;;4.26;78.40;103133.62;3722032;37;20752;-56
2022/03/14 08:58:33;;;;;;;;;23.25;22.25;;;;;4.32;76.56;103132.44;3722768;38;20931;-55
2022/03/14 09:01:02;;;;;;;;;14.75;13.50;;;;;4.08;75.42;103126.56;3722799;38;20619;-56
2022/03/14 09:03:30;;;;;;;;;18.50;16.50;;;;;4.08;72.94;103133.72;3722725;38;20937;-58
2022/03/14 09:05:58;;;;;;;;;20.50;18.25;;;;;4.22;73.75;103129.38;3722931;37;20764;-56
2022/03/14 09:08:27;;;;;;;;;16.50;15.25;;;;;4.16;72.01;103118.97;3722585;37;20742;-56
2022/03/14 09:10:55;;;;;;;;;19.75;17.25;;;;;4.29;72.13;103132.59;3722751;38;20902;-57
2022/03/14 09:13:25;;;;;;;;;17.25;15.75;;;;;4.52;72.17;103126.03;3722781;37;20726;-57
2022/03/14 09:15:53;;;;;;;;;19.00;18.00;;;;;4.53;70.97;103120.59;3722882;38;20738;-54
2022/03/14 09:18:21;;;;;;;;;20.00;20.00;;;;;4.64;68.26;103130.75;3723166;38;20656;-57
2022/03/14 09:20:49;;;;;;;;;20.00;19.75;;;;;4.61;66.63;103129.09;3722772;37;20709;-56
2022/03/14 09:23:19;;;;;;;;;15.25;15.00;;;;;4.58;68.12;103126.56;3723173;38;20719;-58
2022/03/14 09:25:48;;;;;;;;;18.50;17.75;;;;;4.83;67.76;103125.22;3723347;37;20792;-56
2022/03/14 09:28:16;;;;;;;;;19.50;17.00;;;;;4.84;67.24;103117.09;3722561;38;20734;-56
2022/03/14 09:30:44;;;;;;;;;20.00;20.00;;;;;5.06;66.30;103127.53;3723503;38;20661;-57
2022/03/14 09:33:11;;;;;;;;;19.75;19.00;;;;;5.19;64.82;103125.88;3722852;37;20724;-55
2022/03/14 09:35:40;;;;;;;;;21.50;21.00;;;;;5.23;64.52;103126.56;3723885;37;20636;-55
2022/03/14 09:38:08;;;;;;;;;16.25;16.25;;;;;5.13;62.82;103126.22;3723313;38;20630;-56
2022/03/14 09:40:35;;;;;;;;;20.25;20.25;;;;;5.18;64.73;103117.91;3723237;38;20615;-56
2022/03/14 09:43:05;;;;;;;;;16.50;16.00;;;;;5.22;64.72;103116.75;3722334;38;20861;-55
2022/03/14 09:45:36;;;;;;;;;18.25;17.75;;;;;5.54;62.29;103117.63;3723367;37;20659;-55
2022/03/14 09:48:05;;;;;;;;;23.75;20.50;;;;;5.80;60.30;103106.22;3722146;37;20630;-57
2022/03/14 09:50:39;;;;;;;;;16.25;14.50;;;;;6.07;59.25;103108.25;3723143;37;20675;-56
2022/03/14 09:53:09;;;;;;;;;20.25;19.25;;;;;6.20;57.04;103112.81;3721948;38;20617;-57
2022/03/14 09:55:42;;;;;;;;;17.75;16.50;;;;;6.26;57.07;103107.03;3722687;37;20576;-56
2022/03/14 09:58:11;;;;;;;;;23.25;21.50;;;;;6.28;55.67;103106.94;3722809;37;21912;-57
2022/03/14 10:00:39;;;;;;;;;15.75;15.25;;;;;6.43;54.40;103106.00;3722098;38;20689;-52
2022/03/14 10:03:07;;;;;;;;;17.50;16.75;;;;;5.93;53.33;103103.69;3722853;37;21592;-53
2022/03/14 10:05:37;;;;;;;;;16.50;16.50;;;;;6.04;55.99;103103.06;3722795;37;20600;-52
2022/03/14 10:08:05;;;;;;;;;19.00;18.00;;;;;6.26;54.68;103104.34;3721950;37;21569;-52
2022/03/14 10:10:37;;;;;;;;;17.00;16.50;;;;;6.06;53.66;103106.53;3722750;38;21853;-51
2022/03/14 10:13:06;;;;;;;;;14.75;13.50;;;;;5.79;53.49;103091.03;3722048;37;21569;-51
2022/03/14 10:15:37;;;;;;;;;21.50;18.50;;;;;5.87;55.95;103101.34;3722375;37;21816;-52
2022/03/14 10:18:15;;;;;;;;;19.75;19.00;;;;;6.08;55.11;103102.78;3722724;37;21776;-52
2022/03/14 10:21:07;;;;;;;;;18.50;18.50;;;;;6.45;54.26;103090.63;3722711;38;21573;-52
2022/03/14 10:23:43;;;;;;;;;23.50;20.75;;;;;6.56;53.73;103095.34;3722890;38;21557;-52
2022/03/14 10:26:12;;;;;;;;;24.00;23.25;;;;;6.96;52.96;103099.94;3722686;38;21592;-51
2022/03/14 10:28:39;;;;;;;;;18.75;17.50;;;;;7.10;50.88;103100.87;3722695;38;21693;-51
2022/03/14 10:31:07;;;;;;;;;23.25;21.00;;;;;7.17;50.75;103095.00;3721828;37;21576;-51
2022/03/14 10:33:34;;;;;;;;;24.25;22.75;;;;;7.09;49.68;103099.16;3722507;37;21347;-54
2022/03/14 10:36:02;;;;;;;;;19.50;18.75;;;;;6.56;49.20;103089.97;3722642;37;21569;-51
2022/03/14 10:38:42;;;;;;;;;21.00;19.25;;;;;6.04;50.76;103092.31;3721934;37;21544;-52
2022/03/14 10:41:15;;;;;;;;;20.50;20.50;;;;;6.24;52.76;103087.44;3722820;37;21673;-51
2022/03/14 10:43:43;;;;;;;;;24.50;23.25;;;;;6.59;52.19;103087.09;3722697;38;21690;-51
2022/03/14 10:46:10;;;;;;;;;21.75;21.00;;;;;6.75;50.77;103087.00;3722855;38;21628;-52
2022/03/14 10:48:43;;;;;;;;;16.25;14.50;;;;;6.75;50.75;103073.53;3722602;37;21797;-52
2022/03/14 10:51:15;;;;;;;;;14.50;13.75;;;;;6.50;50.24;103077.75;3722652;38;21561;-51
2022/03/14 10:53:47;;;;;;;;;21.50;19.75;;;;;6.54;51.29;103089.19;3722868;37;21506;-51
2022/03/14 10:56:17;;;;;;;;;21.50;21.50;;;;;6.32;51.09;103073.50;3722597;38;21547;-52
2022/03/14 10:58:44;;;;;;;;;19.75;19.50;;;;;6.28;51.33;103069.28;3722827;37;21579;-52
2022/03/14 11:01:13;;;;;;;;;21.75;19.75;;;;;6.11;51.61;103064.97;3721933;38;21541;-52
2022/03/14 11:03:45;;;;;;;;;20.00;18.75;;;;;6.10;51.72;103065.91;3722659;37;21621;-50
2022/03/14 11:06:14;;;;;;;;;18.25;17.25;;;;;5.77;52.32;103066.06;3722833;37;21616;-51
2022/03/14 11:08:48;;;;;;;;;18.00;17.00;;;;;5.62;53.07;103053.59;3722470;38;21692;-51
2022/03/14 11:11:23;;;;;;;;;19.25;19.00;;;;;5.41;54.30;103061.06;3722411;38;21523;-51
2022/03/14 11:13:52;;;;;;;;;24.50;22.25;;;;;5.49;55.60;103057.94;3722437;37;21706;-52
2022/03/14 11:16:26;;;;;;;;;22.00;21.00;;;;;5.49;55.45;103053.44;3721799;38;21659;-50